Latest Weather Observations for Gannett Cay

IDQ60801

Issued at 3:02 am EST Friday 1 July 2016 (issued every 30 minutes, with the page automatically refreshed every 10 minutes)

About weather observations | Map of weather stations | Latest weather observations for QLD | Other Formats
Station Details ID: 200831 Name: GANNET CAY Lat: -21.98 Lon: 152.47 Height: 2.3 m
Data from the previous 72 hours. | See also: Recent months for locations in Queensland
Date/Time
EST
Temp
°C
App
Temp
°C
Dew
Point
°C
Rel
Hum
%
Delta-T
°C
Wind Press
QNH
hPa
Press
MSL
hPa
Rain since
9am
mm
Dir  Spd
km/h
Gust
km/h
Spd
kts
Gust
kts
01/03:00am 22.1 - - - - NE 17 20 9 11 1018.3 - -
01/02:30am 22.2 - - - - NE 17 20 9 11 1018.4 - -
01/02:29am 22.2 - - - - NE 17 17 9 9 1018.4 1018.5 -
01/02:00am 22.2 - - - - NE 17 19 9 10 1018.6 - -
01/01:30am 22.1 - - - - NE 15 17 8 9 1019.0 - -
01/01:29am 22.1 - - - - NE 13 - 7 - - 1019.1 -
01/01:00am 22.1 - - - - ENE 15 19 8 10 1019.1 - -
01/12:30am 22.0 - - - - E 17 20 9 11 1019.3 - -
01/12:29am 22.0 - - - - E 17 - 9 - - 1019.4 -
01/12:00am 22.0 - - - - ENE 19 20 10 11 1019.5 - -
 
Date/Time
EST
Temp
°C
App
Temp
°C
Dew
Point
°C
Rel
Hum
%
Delta-T
°C
Wind Press
QNH
hPa
Press
MSL
hPa
Rain since
9am
mm
Dir  Spd
km/h
Gust
km/h
Spd
kts
Gust
kts
30/11:30pm 22.1 - - - - ENE 17 20 9 11 1019.6 - -
30/11:29pm 22.2 - - - - ENE 17 - 9 - - 1019.7 -
30/11:00pm 22.2 - - - - ENE 19 22 10 12 1019.8 - -
30/10:30pm 22.4 - - - - E 17 19 9 10 1020.0 - -
30/10:29pm 22.4 - - - - E 17 - 9 - - 1020.1 -
30/10:00pm 22.5 - - - - E 17 19 9 10 1020.1 - -
30/09:30pm 22.5 - - - - ESE 15 17 8 9 1020.5 - -
30/09:29pm 22.4 - - - - ESE 13 - 7 - - 1020.6 -
30/09:00pm 22.4 - - - - ESE 13 15 7 8 1020.6 - -
30/08:30pm 22.3 - - - - ESE 17 20 9 11 1020.5 - -
30/08:29pm 22.3 - - - - ESE 17 - 9 - - 1020.6 -
30/08:00pm 22.5 - - - - ESE 17 20 9 11 1020.5 - -
30/07:30pm 22.4 - - - - E 20 24 11 13 1020.1 - -
30/07:29pm 22.4 - - - - E 20 - 11 - - 1020.2 -
30/07:00pm 22.5 - - - - E 19 24 10 13 1019.9 - -
30/06:30pm 22.5 - - - - ESE 17 20 9 11 1019.7 - -
30/06:29pm 22.6 - - - - ESE 17 - 9 - - 1019.8 -
30/06:00pm 22.5 - - - - ESE 17 20 9 11 1019.3 - -
30/05:30pm 22.6 - - - - ESE 15 17 8 9 1019.1 - -
30/05:29pm 22.6 - - - - ESE 15 - 8 - - 1019.2 -
30/05:00pm 23.0 - - - - ESE 15 19 8 10 1018.9 - -
30/04:30pm 23.3 - - - - ESE 17 19 9 10 1018.7 - -
30/04:29pm 23.4 - - - - ESE 17 - 9 - - 1018.8 -
30/04:00pm 23.4 - - - - SE 15 19 8 10 1018.4 - -
30/03:30pm 23.0 - - - - ESE 13 17 7 9 1018.3 - -
30/03:29pm 23.0 - - - - ESE 13 - 7 - - 1018.4 -
30/03:00pm 23.2 - - - - E 13 15 7 8 1018.5 - -
30/02:30pm 23.0 - - - - E 13 17 7 9 1018.6 - -
30/02:29pm 22.9 - - - - E 13 - 7 - - 1018.7 -
30/02:00pm 23.0 - - - - E 15 17 8 9 1018.6 - -
30/01:30pm 22.9 - - - - E 15 19 8 10 1018.8 - -
30/01:29pm 23.0 - - - - E 15 - 8 - - 1018.9 -
30/01:00pm 22.7 - - - - E 17 20 9 11 1019.0 - -
30/12:30pm 22.6 - - - - E 19 22 10 12 1019.4 - -
30/12:29pm 22.6 - - - - E 19 - 10 - - 1019.5 -
30/12:00pm 22.6 - - - - E 22 26 12 14 1019.8 - -
30/11:30am 22.7 - - - - E 22 26 12 14 1020.1 - -
30/11:29am 22.8 - - - - E 22 - 12 - - 1020.2 -
30/11:00am 22.8 - - - - E 22 26 12 14 1020.5 - -
30/10:30am 22.9 - - - - E 22 26 12 14 1020.9 - -
30/10:29am 22.9 - - - - E 22 - 12 - - 1021.0 -
30/10:00am 22.8 - - - - E 24 30 13 16 1021.3 - -
30/09:30am 22.6 - - - - ENE 24 30 13 16 1021.4 1021.5 -
30/09:00am 23.0 - - - - E 28 32 15 17 1021.3 - -
30/08:30am 22.5 - - - - E 32 35 17 19 1021.1 - -
30/08:29am 22.5 - - - - E 32 - 17 - - 1021.2 -
30/08:00am 21.8 - - - - E 37 46 20 25 1020.9 - -
30/07:30am 22.2 - - - - ESE 30 35 16 19 1020.7 - -
30/07:29am 22.3 - - - - ESE 30 - 16 - - 1020.8 -
30/07:00am 22.3 - - - - E 30 35 16 19 1020.3 - -
30/06:30am 22.2 - - - - ESE 33 37 18 20 1020.2 - -
30/06:29am 22.2 - - - - ESE 33 - 18 - - 1020.3 -
30/06:00am 22.2 - - - - ESE 32 37 17 20 1020.0 - -
30/05:30am 22.1 - - - - ESE 33 39 18 21 1019.8 - -
30/05:29am 22.1 - - - - ESE 33 - 18 - - 1019.9 -
30/05:00am 22.2 - - - - ESE 32 37 17 20 1019.7 - -
30/04:30am 22.1 - - - - ESE 30 37 16 20 1019.7 - -
30/04:29am 22.1 - - - - ESE 30 - 16 - - 1019.8 -
30/04:00am 22.1 - - - - ESE 30 35 16 19 1019.8 - -
30/03:30am 22.1 - - - - ESE 30 35 16 19 1019.9 - -
30/03:29am 22.1 - - - - ESE 30 - 16 - - 1020.0 -
30/03:00am 22.3 - - - - ESE 30 35 16 19 1020.0 - -
30/02:30am 22.1 - - - - ESE 32 39 17 21 1020.2 - -
30/02:29am 22.2 - - - - ESE 33 - 18 - - 1020.3 -
30/02:00am 22.2 - - - - ESE 35 41 19 22 1020.4 - -
30/01:30am 22.2 - - - - ESE 33 41 18 22 1020.8 - -
30/01:29am 22.2 - - - - ESE 33 - 18 - - 1020.9 -
30/01:00am 22.2 - - - - ESE 37 43 20 23 1021.0 - -
30/12:30am 22.1 - - - - ESE 37 43 20 23 1021.2 - -
30/12:29am 22.1 - - - - ESE 37 - 20 - - 1021.3 -
30/12:00am 22.1 - - - - ESE 37 44 20 24 1021.3 - -
 
Date/Time
EST
Temp
°C
App
Temp
°C
Dew
Point
°C
Rel
Hum
%
Delta-T
°C
Wind Press
QNH
hPa
Press
MSL
hPa
Rain since
9am
mm
Dir  Spd
km/h
Gust
km/h
Spd
kts
Gust
kts
29/11:30pm 22.1 - - - - ESE 37 43 20 23 1021.5 - -
29/11:29pm 22.1 - - - - ESE 37 - 20 - - 1021.6 -
29/11:00pm 22.2 - - - - ESE 33 39 18 21 1021.9 - -
29/10:30pm 22.1 - - - - ESE 33 39 18 21 1022.1 - -
29/10:29pm 22.0 - - - - ESE 33 - 18 - - 1022.2 -
29/10:00pm 22.0 - - - - ESE 35 43 19 23 1022.3 - -
29/09:30pm 22.0 - - - - ESE 35 41 19 22 1022.4 - -
29/09:29pm 22.0 - - - - ESE 35 - 19 - - 1022.5 -
29/09:00pm 21.9 - - - - SE 35 39 19 21 1022.2 - -
29/08:30pm 22.0 - - - - SE 39 44 21 24 1022.1 - -
29/08:29pm 22.0 - - - - SE 39 - 21 - - 1022.2 -
29/08:00pm 21.9 - - - - SE 41 46 22 25 1022.0 - -
29/07:30pm 21.9 - - - - SE 39 46 21 25 1021.9 - -
29/07:29pm 22.0 - - - - SE 39 - 21 - - 1022.1 -
29/07:00pm 21.9 - - - - SE 37 43 20 23 1021.8 - -
29/06:30pm 21.6 - - - - SSE 35 43 19 23 1021.5 - -
29/06:29pm 21.7 - - - - SSE 35 - 19 - - 1021.6 -
29/06:00pm 21.3 - - - - SSE 35 43 19 23 1021.4 - -
29/05:30pm 21.2 - - - - SSE 33 41 18 22 1021.3 - -
29/05:29pm 21.2 - - - - SSE 35 - 19 - - 1021.4 -
29/05:00pm 21.3 - - - - SE 37 44 20 24 1021.0 - -
29/04:30pm 21.2 - - - - SSE 35 43 19 23 1020.8 - -
29/04:29pm 21.3 - - - - SSE 35 - 19 - - 1020.9 -
29/04:00pm 21.4 - - - - SSE 35 44 19 24 1020.6 - -
29/03:30pm 21.6 - - - - SSE 33 41 18 22 1020.4 - -
29/03:29pm 21.5 - - - - SSE 33 - 18 - - 1020.5 -
29/03:00pm 21.3 - - - - SSE 35 43 19 23 1020.3 - -
29/02:30pm 21.2 - - - - SSE 39 46 21 25 1020.1 - -
29/02:29pm 21.0 - - - - SE 39 - 21 - - 1020.2 -
29/02:00pm 21.1 - - - - SE 37 43 20 23 1020.2 - -
29/01:30pm 21.2 - - - - SE 37 43 20 23 1020.5 - -
29/01:29pm 21.2 - - - - SE 37 - 20 - - 1020.6 -
29/01:00pm 20.9 - - - - SE 33 43 18 23 1020.9 - -
29/12:30pm 21.0 - - - - SSE 35 41 19 22 1021.3 - -
29/12:29pm 20.9 - - - - SSE 33 - 18 - - 1021.4 -
29/12:00pm 20.9 - - - - SSE 35 43 19 23 1021.7 - -
29/11:30am 20.9 - - - - SSE 35 43 19 23 1022.2 - -
29/11:29am 20.8 - - - - SSE 35 - 19 - - 1022.3 -
29/11:00am 21.0 - - - - SSE 35 43 19 23 1022.6 - -
29/10:30am 20.9 - - - - SSE 35 46 19 25 1022.9 - -
29/10:29am 21.0 - - - - SSE 35 - 19 - - 1023.0 -
29/10:00am 20.9 - - - - SSE 33 41 18 22 1023.1 - -
29/09:30am 20.7 - - - - SSE 35 43 19 23 1023.2 - -
29/09:29am 20.8 - - - - SSE 35 - 19 - - 1023.3 -
29/09:00am 20.7 - - - - SSE 33 44 18 24 1023.1 - -
29/08:30am 20.6 - - - - SSE 33 43 18 23 1022.9 - -
29/08:29am 20.5 - - - - SSE 33 - 18 - - 1023.0 -
29/08:00am 20.5 - - - - SSE 33 41 18 22 1022.8 - -
29/07:30am 20.4 - - - - SE 32 39 17 21 1022.6 - -
29/07:29am 20.4 - - - - SE 33 - 18 - - 1022.7 -
29/07:00am 20.1 - - - - SSE 32 44 17 24 1022.4 - -
29/06:30am 19.9 - - - - SE 30 37 16 20 1022.3 - -
29/06:29am 20.0 - - - - SE 30 - 16 - - 1022.4 -
29/06:00am 20.1 - - - - SE 32 41 17 22 1022.1 - -
29/05:30am 19.7 - - - - SE 28 32 15 17 1021.8 - -
29/05:29am 19.7 - - - - SE 28 - 15 - - 1021.9 -
29/05:00am 19.7 - - - - SSE 30 37 16 20 1021.7 - -
29/04:30am 19.6 - - - - SSE 28 33 15 18 1021.5 - -
29/04:29am 19.6 - - - - SSE 28 - 15 - - 1021.6 -
29/04:00am 19.5 - - - - SE 28 35 15 19 1021.5 - -
29/03:30am 19.4 - - - - SE 32 39 17 21 1021.4 - -
29/03:29am 19.5 - - - - SE 32 - 17 - - 1021.6 -
29/03:00am 19.6 - - - - SSE 33 41 18 22 1021.7 - -
29/02:30am 19.6 - - - - SE 32 37 17 20 1021.7 - -
29/02:29am 19.5 - - - - SE 32 - 17 - - 1021.8 -
29/02:00am 19.5 - - - - SSE 32 39 17 21 1021.9 - -
29/01:30am 19.5 - - - - SE 35 43 19 23 1022.1 - -
29/01:29am 19.5 - - - - SE 35 - 19 - - 1022.2 -
29/01:00am 19.6 - - - - SE 35 44 19 24 1022.2 - -
29/12:30am 19.5 - - - - SSE 35 43 19 23 1022.3 - -
29/12:29am 19.5 - - - - SSE 35 - 19 - - 1022.4 -
29/12:00am 19.3 - - - - SSE 35 44 19 24 1022.2 - -
 
Date/Time
EST
Temp
°C
App
Temp
°C
Dew
Point
°C
Rel
Hum
%
Delta-T
°C
Wind Press
QNH
hPa
Press
MSL
hPa
Rain since
9am
mm
Dir  Spd
km/h
Gust
km/h
Spd
kts
Gust
kts
28/11:30pm 19.3 - - - - SSE 41 50 22 27 1022.6 - -
28/11:29pm 19.3 - - - - SSE 39 - 21 - - 1022.7 -
28/11:00pm 19.1 - - - - SSE 41 46 22 25 1022.6 - -
28/10:30pm 19.5 - - - - SSE 41 48 22 26 1022.5 - -
28/10:29pm 19.3 - - - - SSE 41 - 22 - - 1022.6 -
28/10:00pm 19.2 - - - - SSE 39 50 21 27 1022.4 - -
28/09:30pm 19.0 - - - - SSE 41 54 22 29 1022.5 - -
28/09:29pm 19.1 - - - - SSE 41 - 22 - - 1022.5 -
28/09:00pm 19.2 - - - - S 39 48 21 26 1022.3 - -
28/08:30pm 18.7 - - - - S 41 56 22 30 1022.2 - -
28/08:29pm 18.7 - - - - S 39 - 21 - - 1022.3 -
28/08:22pm 18.9 - - - - S 37 56 20 30 1022.2 - -
28/08:00pm 18.3 - - - - S 35 44 19 24 1022.2 - -
28/07:30pm 18.4 - - - - S 33 41 18 22 1022.0 - -
28/07:29pm 18.3 - - - - S 32 - 17 - - 1022.1 -
28/07:00pm 18.1 - - - - S 33 41 18 22 1021.7 - -
28/06:30pm 17.8 - - - - S 35 48 19 26 1021.3 - -
28/06:29pm 17.9 - - - - S 33 - 18 - - 1021.4 -
28/06:00pm 17.7 - - - - S 33 41 18 22 1020.9 - -
28/05:30pm 17.6 - - - - S 35 44 19 24 1020.6 - -
28/05:29pm 17.8 - - - - S 35 - 19 - - 1020.7 -
28/05:00pm 17.4 - - - - S 35 46 19 25 1020.4 - -
28/04:30pm 17.6 - - - - S 37 43 20 23 1020.1 - -
28/04:29pm 17.7 - - - - S 35 - 19 - - 1020.2 -
28/04:00pm 17.4 - - - - S 37 46 20 25 1019.8 - -
28/03:30pm 17.4 - - - - S 37 43 20 23 1019.8 - -
28/03:29pm 17.4 - - - - S 35 - 19 - - 1019.9 -
28/03:00pm 16.8 - - - - S 37 46 20 25 1019.6 - -
28/02:30pm 16.9 - - - - S 37 46 20 25 1019.5 - -
28/02:29pm 16.9 - - - - S 37 - 20 - - 1019.6 -
28/02:00pm 16.7 - - - - S 37 46 20 25 1019.4 - -
28/01:30pm 16.6 - - - - S 37 44 20 24 1019.4 - -
28/01:29pm 16.9 - - - - S 37 - 20 - - 1019.4 -
28/01:00pm 16.7 - - - - S 35 48 19 26 1019.4 - -
28/12:30pm 16.9 - - - - S 37 44 20 24 1019.7 - -
28/12:29pm 16.8 - - - - S 37 - 20 - - 1019.8 -
28/12:00pm 17.3 - - - - S 35 41 19 22 1020.1 - -
28/11:30am 17.3 - - - - S 35 46 19 25 1020.3 - -
28/11:29am 17.6 - - - - S 35 - 19 - - 1020.4 -
28/11:00am 17.0 - - - - S 39 46 21 25 1020.4 - -
28/10:30am 17.7 - - - - S 37 44 20 24 1020.6 - -
28/10:29am 17.7 - - - - S 37 - 20 - - 1020.8 -
28/10:00am 18.1 - - - - S 37 46 20 25 1020.7 - -
28/09:30am 18.2 - - - - S 37 46 20 25 1020.8 - -
28/09:29am 17.9 - - - - S 37 - 20 - - 1020.9 -
28/09:00am 18.2 - - - - S 35 43 19 23 1020.9 - -
28/08:30am 18.4 - - - - S 33 41 18 22 1020.5 - -
28/08:29am 18.4 - - - - S 33 - 18 - - 1020.6 -
28/08:00am 18.3 - - - - S 41 46 22 25 1020.2 - -
28/07:30am 18.5 - - - - S 39 46 21 25 1020.1 - -
28/07:29am 18.2 - - - - S 39 - 21 - - 1020.1 -
28/07:00am 18.2 - - - - S 39 46 21 25 1019.6 - -
28/06:30am 18.5 - - - - S 41 48 22 26 1019.0 - -
28/06:29am 18.6 - - - - S 41 - 22 - - 1019.2 -
28/06:00am 18.6 - - - - S 37 43 20 23 1018.5 - -
28/05:30am 18.8 - - - - S 37 43 20 23 1018.4 - -
28/05:29am 19.0 - - - - S 37 - 20 - - 1018.5 -
28/05:00am 18.8 - - - - S 39 44 21 24 1017.9 - -
28/04:30am 19.3 - - - - S 41 46 22 25 1017.5 - -
28/04:29am 19.1 - - - - S 41 - 22 - - 1017.6 -
28/04:00am 19.4 - - - - S 41 48 22 26 1017.5 - -
28/03:30am 20.1 - - - - S 43 48 23 26 1017.4 - -
28/03:29am 20.1 - - - - S 43 - 23 - - 1017.4 -

Other Formats:

Comma delimited format used in spreadsheet applications
http://www.bom.gov.au/fwo/IDQ60801/IDQ60801.94379.axf

JavaScript Object Notation format (JSON) in row-major order
http://www.bom.gov.au/fwo/IDQ60801/IDQ60801.94379.json